Time,TemperatureF,DewpointF,PressureIn,WindDirection,WindDirectionDegrees,WindSpeedMPH,WindSpeedGustMPH,Humidity,HourlyPrecipIn,Conditions,Clouds,dailyrainin,SoftwareType,DateUTC
2013-02-22 00:00:00,19.8,16.0,30.34,NW,313,9.0,12.0,85,0.00,,,0.00,meteohub,2013-02-22 05:00:00,
2013-02-22 00:01:00,19.8,16.0,30.34,WNW,297,7.0,16.0,85,0.00,,,0.00,meteohub,2013-02-22 05:01:00,
2013-02-22 00:02:00,19.8,16.0,30.35,NNW,338,9.0,16.0,85,0.00,,,0.00,meteohub,2013-02-22 05:02:00,
2013-02-22 00:07:00,19.8,16.0,30.35,NNW,335,10.0,16.0,85,0.00,,,0.00,meteohub,2013-02-22 05:07:00,
2013-02-22 00:10:00,19.8,16.0,30.35,West,280,14.0,16.0,85,0.00,,,0.00,meteohub,2013-02-22 05:10:00,
2013-02-22 00:15:00,19.8,16.0,30.35,NW,310,11.0,16.0,85,0.00,,,0.00,meteohub,2013-02-22 05:15:00,
2013-02-22 00:20:00,19.8,16.0,30.35,NNW,338,5.0,16.0,85,0.00,,,0.00,meteohub,2013-02-22 05:20:00,
2013-02-22 00:25:00,19.6,15.8,30.35,NW,307,3.0,17.0,85,0.00,,,0.00,meteohub,2013-02-22 05:25:00,
2013-02-22 00:30:00,19.6,15.8,30.34,WNW,299,6.0,17.0,85,0.00,,,0.00,meteohub,2013-02-22 05:30:00,
2013-02-22 00:35:00,19.6,16.2,30.35,North,357,7.0,17.0,86,0.00,,,0.00,meteohub,2013-02-22 05:35:00,
2013-02-22 00:40:00,19.8,16.3,30.34,NNW,329,10.0,16.0,86,0.00,,,0.00,meteohub,2013-02-22 05:40:00,
2013-02-22 00:45:00,19.8,16.3,30.34,NW,323,9.0,17.0,86,0.00,,,0.00,meteohub,2013-02-22 05:45:00,
2013-02-22 00:50:00,19.9,16.5,30.34,NNW,341,5.0,17.0,86,0.00,,,0.00,meteohub,2013-02-22 05:50:00,
2013-02-22 00:55:00,19.8,16.3,30.33,NW,317,4.0,17.0,86,0.00,,,0.00,meteohub,2013-02-22 05:55:00,
2013-02-22 01:00:00,19.8,16.0,30.34,NNW,338,2.0,13.0,85,0.00,,,0.00,meteohub,2013-02-22 06:00:00,
2013-02-22 01:05:00,19.8,16.3,30.34,North,352,2.0,11.0,86,0.00,,,0.00,meteohub,2013-02-22 06:05:00,
2013-02-22 01:10:00,19.9,16.2,30.34,WNW,284,0.0,8.0,85,0.00,,,0.00,meteohub,2013-02-22 06:10:00,
2013-02-22 01:15:00,19.9,16.2,30.34,North,349,3.0,9.0,85,0.00,,,0.00,meteohub,2013-02-22 06:15:00,
2013-02-22 01:20:00,20.1,16.3,30.34,North,351,0.0,9.0,85,0.00,,,0.00,meteohub,2013-02-22 06:20:00,
2013-02-22 01:25:00,20.1,16.3,30.34,NW,326,1.0,9.0,85,0.00,,,0.00,meteohub,2013-02-22 06:25:00,
2013-02-22 01:31:00,20.1,16.3,30.34,NW,306,0.0,7.0,85,0.00,,,0.00,meteohub,2013-02-22 06:31:00,
2013-02-22 01:36:00,20.5,16.7,30.33,NNW,336,1.0,7.0,85,0.00,,,0.00,meteohub,2013-02-22 06:36:00,
2013-02-22 01:41:00,20.5,16.7,30.33,WNW,286,0.0,6.0,85,0.00,,,0.00,meteohub,2013-02-22 06:41:00,
2013-02-22 01:46:00,20.5,16.7,30.33,WSW,253,1.0,6.0,85,0.00,,,0.00,meteohub,2013-02-22 06:46:00,
2013-02-22 01:51:00,20.7,16.9,30.34,NNW,334,1.0,7.0,85,0.00,,,0.00,meteohub,2013-02-22 06:51:00,
2013-02-22 01:56:00,20.8,17.1,30.34,SE,133,0.0,7.0,85,0.00,,,0.00,meteohub,2013-02-22 06:56:00,
2013-02-22 02:01:00,21.0,17.2,30.34,SE,132,1.0,7.0,85,0.00,,,0.00,meteohub,2013-02-22 07:01:00,
2013-02-22 02:06:00,21.4,17.6,30.34,NW,323,2.0,6.0,85,0.00,,,0.00,meteohub,2013-02-22 07:06:00,
2013-02-22 02:11:00,21.7,17.6,30.34,SSE,150,1.0,6.0,84,0.00,,,0.00,meteohub,2013-02-22 07:11:00,
2013-02-22 02:16:00,21.7,17.6,30.34,SE,137,2.0,6.0,84,0.00,,,0.00,meteohub,2013-02-22 07:16:00,
2013-02-22 02:21:00,21.6,17.8,30.34,SE,130,2.0,6.0,85,0.00,,,0.00,meteohub,2013-02-22 07:21:00,
2013-02-22 02:26:00,21.6,17.8,30.34,South,172,1.0,4.0,85,0.00,,,0.00,meteohub,2013-02-22 07:26:00,
2013-02-22 02:31:00,21.6,17.8,30.34,SE,133,0.0,4.0,85,0.00,,,0.00,meteohub,2013-02-22 07:31:00,
2013-02-22 02:36:00,21.6,17.8,30.34,SE,130,2.0,4.0,85,0.00,,,0.00,meteohub,2013-02-22 07:36:00,
2013-02-22 02:41:00,21.6,18.0,30.34,ESE,121,2.0,4.0,86,0.00,,,0.00,meteohub,2013-02-22 07:41:00,
2013-02-22 02:46:00,21.7,18.1,30.35,SE,142,2.0,4.0,86,0.00,,,0.00,meteohub,2013-02-22 07:46:00,
2013-02-22 02:51:00,22.3,18.7,30.35,SE,130,0.0,4.0,86,0.00,,,0.00,meteohub,2013-02-22 07:51:00,
2013-02-22 02:56:00,22.3,18.5,30.34,SE,134,0.0,4.0,85,0.00,,,0.00,meteohub,2013-02-22 07:56:00,
2013-02-22 03:01:00,22.1,18.3,30.35,SE,133,1.0,4.0,85,0.00,,,0.00,meteohub,2013-02-22 08:01:00,
2013-02-22 03:06:00,23.0,19.4,30.35,NNW,336,3.0,3.0,86,0.00,,,0.00,meteohub,2013-02-22 08:06:00,
2013-02-22 03:11:00,24.3,20.1,30.35,North,351,2.0,7.0,84,0.00,,,0.00,meteohub,2013-02-22 08:11:00,
2013-02-22 03:16:00,25.2,20.5,30.35,North,350,5.0,8.0,82,0.00,,,0.00,meteohub,2013-02-22 08:16:00,
2013-02-22 03:21:00,25.5,20.5,30.35,NNW,329,4.0,9.0,81,0.00,,,0.00,meteohub,2013-02-22 08:21:00,
2013-02-22 03:26:00,25.7,20.5,30.34,NNW,347,3.0,9.0,80,0.00,,,0.00,meteohub,2013-02-22 08:26:00,
2013-02-22 03:31:00,25.9,20.5,30.34,NNW,341,3.0,9.0,80,0.00,,,0.00,meteohub,2013-02-22 08:31:00,
2013-02-22 03:36:00,25.9,20.5,30.34,NW,320,3.0,8.0,80,0.00,,,0.00,meteohub,2013-02-22 08:36:00,
2013-02-22 03:42:00,25.9,20.5,30.34,NNW,332,0.0,9.0,80,0.00,,,0.00,meteohub,2013-02-22 08:42:00,
2013-02-22 03:47:00,25.9,20.5,30.33,NW,307,1.0,9.0,80,0.00,,,0.00,meteohub,2013-02-22 08:47:00,
2013-02-22 03:52:00,25.9,20.5,30.33,WSW,251,0.0,9.0,80,0.00,,,0.00,meteohub,2013-02-22 08:52:00,
2013-02-22 03:57:00,25.7,20.5,30.33,NNW,346,4.0,6.0,80,0.00,,,0.00,meteohub,2013-02-22 08:57:00,
2013-02-22 04:02:00,25.9,20.5,30.32,West,280,3.0,7.0,80,0.00,,,0.00,meteohub,2013-02-22 09:02:00,
2013-02-22 04:07:00,25.9,20.3,30.33,NNW,334,4.0,7.0,79,0.00,,,0.00,meteohub,2013-02-22 09:07:00,
2013-02-22 04:12:00,25.9,20.3,30.33,NW,319,2.0,7.0,79,0.00,,,0.00,meteohub,2013-02-22 09:12:00,
2013-02-22 04:17:00,25.9,20.3,30.33,NNW,332,3.0,7.0,79,0.00,,,0.00,meteohub,2013-02-22 09:17:00,
2013-02-22 04:22:00,26.1,20.5,30.34,NNW,337,8.0,8.0,79,0.00,,,0.00,meteohub,2013-02-22 09:22:00,
2013-02-22 04:27:00,26.1,20.5,30.34,West,275,0.0,10.0,79,0.00,,,0.00,meteohub,2013-02-22 09:27:00,
2013-02-22 04:32:00,25.9,20.3,30.34,NNW,329,0.0,10.0,79,0.00,,,0.00,meteohub,2013-02-22 09:32:00,
2013-02-22 04:37:00,26.1,20.5,30.34,NNW,329,2.0,12.0,79,0.00,,,0.00,meteohub,2013-02-22 09:37:00,
2013-02-22 04:42:00,26.1,20.5,30.34,NW,314,2.0,12.0,79,0.00,,,0.00,meteohub,2013-02-22 09:42:00,
2013-02-22 04:47:00,25.9,20.3,30.34,NW,325,1.0,12.0,79,0.00,,,0.00,meteohub,2013-02-22 09:47:00,
2013-02-22 04:52:00,25.9,20.3,30.34,North,350,1.0,7.0,79,0.00,,,0.00,meteohub,2013-02-22 09:52:00,
2013-02-22 04:57:00,25.9,20.3,30.34,North,359,5.0,7.0,79,0.00,,,0.00,meteohub,2013-02-22 09:57:00,
2013-02-22 05:02:00,26.1,20.5,30.34,NNW,338,6.0,8.0,79,0.00,,,0.00,meteohub,2013-02-22 10:02:00,
2013-02-22 05:07:00,26.1,20.1,30.35,NW,320,0.0,8.0,78,0.00,,,0.00,meteohub,2013-02-22 10:07:00,
2013-02-22 05:12:00,26.1,20.5,30.35,NNW,341,3.0,8.0,79,0.00,,,0.00,meteohub,2013-02-22 10:12:00,
2013-02-22 05:17:00,25.9,20.3,30.35,North,351,3.0,8.0,79,0.00,,,0.00,meteohub,2013-02-22 10:17:00,
2013-02-22 05:22:00,25.9,20.3,30.37,NNW,340,2.0,5.0,79,0.00,,,0.00,meteohub,2013-02-22 10:22:00,
2013-02-22 05:27:00,26.1,20.1,30.37,NW,324,2.0,10.0,78,0.00,,,0.00,meteohub,2013-02-22 10:27:00,
2013-02-22 05:32:00,25.9,19.9,30.37,NNW,341,3.0,10.0,78,0.00,,,0.00,meteohub,2013-02-22 10:32:00,
2013-02-22 05:37:00,25.9,19.9,30.37,North,351,3.0,10.0,78,0.00,,,0.00,meteohub,2013-02-22 10:37:00,
2013-02-22 05:42:00,25.9,19.9,30.37,NNW,346,4.0,6.0,78,0.00,,,0.00,meteohub,2013-02-22 10:42:00,
2013-02-22 05:47:00,25.7,19.8,30.37,NNW,340,4.0,6.0,78,0.00,,,0.00,meteohub,2013-02-22 10:47:00,
2013-02-22 05:52:00,25.5,19.6,30.38,NNW,331,2.0,6.0,78,0.00,,,0.00,meteohub,2013-02-22 10:52:00,
2013-02-22 05:57:00,25.3,19.8,30.38,NNW,329,0.0,6.0,79,0.00,,,0.00,meteohub,2013-02-22 10:57:00,
2013-02-22 06:02:00,25.2,19.2,30.38,WNW,289,0.0,6.0,78,0.00,,,0.00,meteohub,2013-02-22 11:02:00,
2013-02-22 06:07:00,24.8,19.2,30.39,WNW,290,0.0,3.0,79,0.00,,,0.00,meteohub,2013-02-22 11:07:00,
2013-02-22 06:12:00,24.3,18.3,30.40,NNW,341,1.0,2.0,78,0.00,,,0.00,meteohub,2013-02-22 11:12:00,
2013-02-22 06:17:00,24.3,18.7,30.40,North,359,0.0,2.0,79,0.00,,,0.00,meteohub,2013-02-22 11:17:00,
2013-02-22 06:22:00,23.7,18.1,30.40,North,359,0.0,2.0,79,0.00,,,0.00,meteohub,2013-02-22 11:22:00,
2013-02-22 06:27:00,23.2,18.0,30.40,North,359,0.0,2.0,80,0.00,,,0.00,meteohub,2013-02-22 11:27:00,
2013-02-22 06:32:00,22.6,17.8,30.40,North,359,0.0,0.0,81,0.00,,,0.00,meteohub,2013-02-22 11:32:00,
2013-02-22 06:37:00,22.3,17.4,30.40,North,359,0.0,0.0,81,0.00,,,0.00,meteohub,2013-02-22 11:37:00,
2013-02-22 06:42:00,21.7,17.4,30.41,ESE,119,1.0,0.0,83,0.00,,,0.00,meteohub,2013-02-22 11:42:00,
2013-02-22 06:47:00,21.2,16.9,30.41,ESE,120,0.0,2.0,83,0.00,,,0.00,meteohub,2013-02-22 11:47:00,
2013-02-22 06:52:00,20.7,16.5,30.41,ESE,120,0.0,2.0,84,0.00,,,0.00,meteohub,2013-02-22 11:52:00,
2013-02-22 06:57:00,19.9,15.6,30.41,ESE,120,0.0,2.0,83,0.00,,,0.00,meteohub,2013-02-22 11:57:00,
2013-02-22 07:02:00,19.6,15.8,30.40,ESE,119,1.0,0.0,85,0.00,,,0.00,meteohub,2013-02-22 12:02:00,
2013-02-22 07:07:00,19.0,15.3,30.41,ESE,119,0.0,1.0,85,0.00,,,0.00,meteohub,2013-02-22 12:07:00,
2013-02-22 07:12:00,18.9,15.4,30.40,NW,305,1.0,1.0,86,0.00,,,0.00,meteohub,2013-02-22 12:12:00,
2013-02-22 07:17:00,18.1,14.7,30.40,East,96,2.0,2.0,86,0.00,,,0.00,meteohub,2013-02-22 12:17:00,
2013-02-22 07:22:00,17.8,14.5,30.41,ESE,114,0.0,2.0,87,0.00,,,0.00,meteohub,2013-02-22 12:22:00,
2013-02-22 07:27:00,17.8,14.5,30.42,SE,133,1.0,2.0,87,0.00,,,0.00,meteohub,2013-02-22 12:27:00,
2013-02-22 07:32:00,17.4,14.2,30.42,SE,133,0.0,2.0,87,0.00,,,0.00,meteohub,2013-02-22 12:32:00,
2013-02-22 07:37:00,17.4,14.5,30.42,SE,133,0.0,2.0,88,0.00,,,0.00,meteohub,2013-02-22 12:37:00,
2013-02-22 07:42:00,17.4,14.7,30.42,SE,133,0.0,2.0,89,0.00,,,0.00,meteohub,2013-02-22 12:42:00,
2013-02-22 07:47:00,17.4,14.7,30.42,SE,133,0.0,0.0,89,0.00,,,0.00,meteohub,2013-02-22 12:47:00,
2013-02-22 07:52:00,17.6,14.9,30.43,SE,133,0.0,1.0,89,0.00,,,0.00,meteohub,2013-02-22 12:52:00,
2013-02-22 07:57:00,17.4,14.5,30.43,ESE,105,0.0,1.0,88,0.00,,,0.00,meteohub,2013-02-22 12:57:00,
2013-02-22 08:02:00,17.4,14.7,30.43,ESE,105,0.0,1.0,89,0.00,,,0.00,meteohub,2013-02-22 13:02:00,
2013-02-22 08:07:00,17.6,14.9,30.43,SE,128,3.0,3.0,89,0.00,,,0.00,meteohub,2013-02-22 13:07:00,
2013-02-22 08:12:00,18.0,15.3,30.43,SE,124,1.0,5.0,89,0.00,,,0.00,meteohub,2013-02-22 13:12:00,
2013-02-22 08:17:00,18.3,15.8,30.43,SE,124,0.0,5.0,90,0.00,,,0.00,meteohub,2013-02-22 13:17:00,
2013-02-22 08:22:00,19.0,16.3,30.43,SE,124,0.0,5.0,89,0.00,,,0.00,meteohub,2013-02-22 13:22:00,
2013-02-22 08:27:00,19.8,16.7,30.43,SE,126,2.0,3.0,88,0.00,,,0.00,meteohub,2013-02-22 13:27:00,
2013-02-22 08:32:00,20.5,17.2,30.43,SE,125,1.0,5.0,87,0.00,,,0.00,meteohub,2013-02-22 13:32:00,
2013-02-22 08:37:00,21.4,18.1,30.42,SE,126,1.0,5.0,87,0.00,,,0.00,meteohub,2013-02-22 13:37:00,
2013-02-22 08:42:00,22.3,19.0,30.42,SE,126,0.0,3.0,87,0.00,,,0.00,meteohub,2013-02-22 13:42:00,
2013-02-22 08:47:00,23.2,19.0,30.43,SE,126,1.0,2.0,84,0.00,,,0.00,meteohub,2013-02-22 13:47:00,
2013-02-22 08:52:00,23.7,19.4,30.43,SE,141,0.0,2.0,83,0.00,,,0.00,meteohub,2013-02-22 13:52:00,
2013-02-22 08:57:00,24.3,19.2,30.43,WSW,256,0.0,2.0,81,0.00,,,0.00,meteohub,2013-02-22 13:57:00,
2013-02-22 09:02:00,24.6,19.4,30.42,NNW,337,2.0,2.0,80,0.00,,,0.00,meteohub,2013-02-22 14:02:00,
2013-02-22 09:07:00,25.2,19.2,30.43,NW,315,2.0,4.0,78,0.00,,,0.00,meteohub,2013-02-22 14:07:00,
2013-02-22 09:12:00,25.3,19.4,30.43,NNW,330,1.0,4.0,78,0.00,,,0.00,meteohub,2013-02-22 14:12:00,
2013-02-22 09:17:00,25.7,19.6,30.43,NNW,339,1.0,4.0,77,0.00,,,0.00,meteohub,2013-02-22 14:17:00,
2013-02-22 09:22:00,26.1,19.6,30.43,NNW,338,3.0,4.0,76,0.00,,,0.00,meteohub,2013-02-22 14:22:00,
2013-02-22 09:27:00,26.2,19.8,30.43,NW,319,3.0,4.0,76,0.00,,,0.00,meteohub,2013-02-22 14:27:00,
2013-02-22 09:32:00,26.8,19.6,30.43,NNW,332,2.0,5.0,74,0.00,,,0.00,meteohub,2013-02-22 14:32:00,
2013-02-22 09:37:00,27.1,19.9,30.43,North,351,3.0,5.0,74,0.00,,,0.00,meteohub,2013-02-22 14:37:00,
2013-02-22 09:42:00,27.5,19.9,30.43,North,349,1.0,5.0,73,0.00,,,0.00,meteohub,2013-02-22 14:42:00,
2013-02-22 09:47:00,27.7,19.8,30.43,NW,313,3.0,7.0,72,0.00,,,0.00,meteohub,2013-02-22 14:47:00,
2013-02-22 09:52:00,27.9,19.9,30.42,NW,319,4.0,7.0,72,0.00,,,0.00,meteohub,2013-02-22 14:52:00,
2013-02-22 09:57:00,28.2,20.1,30.42,NNW,341,3.0,7.0,71,0.00,,,0.00,meteohub,2013-02-22 14:57:00,
2013-02-22 10:02:00,28.6,20.3,30.41,NNW,345,3.0,7.0,71,0.00,,,0.00,meteohub,2013-02-22 15:02:00,
2013-02-22 10:07:00,28.8,20.3,30.41,NNW,337,4.0,7.0,70,0.00,,,0.00,meteohub,2013-02-22 15:07:00,
2013-02-22 10:12:00,28.9,20.5,30.41,NW,326,2.0,7.0,70,0.00,,,0.00,meteohub,2013-02-22 15:12:00,
2013-02-22 10:17:00,29.1,20.5,30.41,NNW,337,1.0,7.0,70,0.00,,,0.00,meteohub,2013-02-22 15:17:00,
2013-02-22 10:22:00,29.5,20.7,30.41,NNW,341,4.0,7.0,69,0.00,,,0.00,meteohub,2013-02-22 15:22:00,
2013-02-22 10:27:00,29.7,20.7,30.40,NW,321,3.0,6.0,69,0.00,,,0.00,meteohub,2013-02-22 15:27:00,
2013-02-22 10:32:00,29.7,20.7,30.40,NNW,347,2.0,6.0,69,0.00,,,0.00,meteohub,2013-02-22 15:32:00,
2013-02-22 10:37:00,29.7,20.5,30.40,NNW,343,3.0,6.0,68,0.00,,,0.00,meteohub,2013-02-22 15:37:00,
2013-02-22 10:42:00,29.8,20.7,30.40,North,353,3.0,6.0,68,0.00,,,0.00,meteohub,2013-02-22 15:42:00,
2013-02-22 10:47:00,30.0,20.7,30.39,WNW,303,3.0,6.0,68,0.00,,,0.00,meteohub,2013-02-22 15:47:00,
2013-02-22 10:52:00,30.0,20.5,30.39,NNW,343,2.0,6.0,67,0.00,,,0.00,meteohub,2013-02-22 15:52:00,
2013-02-22 10:57:00,30.6,20.8,30.38,NW,321,2.0,6.0,67,0.00,,,0.00,meteohub,2013-02-22 15:57:00,
2013-02-22 11:02:00,30.9,20.8,30.38,NNW,341,2.0,5.0,66,0.00,,,0.00,meteohub,2013-02-22 16:02:00,
2013-02-22 11:07:00,31.3,21.6,30.38,NNW,342,2.0,5.0,67,0.00,,,0.00,meteohub,2013-02-22 16:07:00,
2013-02-22 11:12:00,31.6,21.2,30.38,NNW,329,1.0,5.0,65,0.01,,,0.01,meteohub,2013-02-22 16:12:00,
2013-02-22 11:17:00,32.2,21.4,30.38,NNW,347,2.0,5.0,64,0.01,,,0.01,meteohub,2013-02-22 16:17:00,
2013-02-22 11:22:00,32.4,21.2,30.38,NNW,348,0.0,4.0,63,0.01,,,0.01,meteohub,2013-02-22 16:22:00,
2013-02-22 11:27:00,32.5,21.4,30.37,NNW,341,1.0,4.0,63,0.01,,,0.01,meteohub,2013-02-22 16:27:00,
2013-02-22 11:32:00,32.4,21.2,30.37,NNW,341,2.0,5.0,63,0.01,,,0.01,meteohub,2013-02-22 16:32:00,
2013-02-22 11:37:00,32.5,21.4,30.37,NNW,334,0.0,5.0,63,0.01,,,0.01,meteohub,2013-02-22 16:37:00,
2013-02-22 11:42:00,32.9,21.4,30.37,NNW,335,3.0,5.0,62,0.02,,,0.02,meteohub,2013-02-22 16:42:00,
2013-02-22 11:47:00,32.7,21.6,30.37,West,274,4.0,7.0,63,0.02,,,0.02,meteohub,2013-02-22 16:47:00,
2013-02-22 11:52:00,32.9,21.4,30.37,North,357,2.0,7.0,62,0.02,,,0.02,meteohub,2013-02-22 16:52:00,
2013-02-22 11:57:00,33.1,21.9,30.37,NNW,347,1.0,7.0,63,0.02,,,0.02,meteohub,2013-02-22 16:57:00,
2013-02-22 12:02:00,33.3,21.7,30.38,NNW,341,1.0,5.0,62,0.02,,,0.02,meteohub,2013-02-22 17:02:00,
2013-02-22 12:07:00,33.4,21.4,30.37,North,349,2.0,4.0,61,0.02,,,0.02,meteohub,2013-02-22 17:07:00,
2013-02-22 12:12:00,34.0,21.6,30.37,North,349,2.0,4.0,60,0.02,,,0.03,meteohub,2013-02-22 17:12:00,
2013-02-22 12:17:00,34.0,21.9,30.37,NNW,336,1.0,3.0,61,0.02,,,0.03,meteohub,2013-02-22 17:17:00,
2013-02-22 12:22:00,34.0,21.9,30.36,NNW,337,2.0,3.0,61,0.02,,,0.03,meteohub,2013-02-22 17:22:00,
2013-02-22 12:27:00,34.0,22.6,30.36,NW,321,1.0,3.0,63,0.02,,,0.03,meteohub,2013-02-22 17:27:00,
2013-02-22 12:32:00,33.6,22.5,30.36,NW,324,1.0,3.0,63,0.02,,,0.03,meteohub,2013-02-22 17:32:00,
2013-02-22 12:37:00,33.3,22.1,30.36,NW,322,1.0,3.0,63,0.01,,,0.03,meteohub,2013-02-22 17:37:00,
2013-02-22 12:42:00,33.1,21.9,30.36,NNW,342,0.0,2.0,63,0.01,,,0.03,meteohub,2013-02-22 17:42:00,
2013-02-22 12:47:00,33.4,23.0,30.36,ESE,117,2.0,2.0,65,0.01,,,0.03,meteohub,2013-02-22 17:47:00,
2013-02-22 12:52:00,34.2,23.2,30.36,ESE,120,2.0,5.0,64,0.01,,,0.03,meteohub,2013-02-22 17:52:00,
2013-02-22 12:57:00,34.5,21.7,30.36,ESE,123,0.0,5.0,59,0.01,,,0.03,meteohub,2013-02-22 17:57:00,
2013-02-22 13:02:00,35.1,23.4,30.35,SSE,157,1.0,5.0,62,0.01,,,0.03,meteohub,2013-02-22 18:02:00,
2013-02-22 13:07:00,35.2,22.3,30.35,NNW,343,0.0,3.0,59,0.01,,,0.03,meteohub,2013-02-22 18:07:00,
2013-02-22 13:12:00,35.6,22.3,30.35,NNW,343,0.0,2.0,58,0.00,,,0.03,meteohub,2013-02-22 18:12:00,
2013-02-22 13:17:00,36.0,23.4,30.35,East,95,0.0,2.0,60,0.00,,,0.03,meteohub,2013-02-22 18:17:00,
2013-02-22 13:22:00,36.3,23.0,30.34,ENE,64,0.0,2.0,58,0.00,,,0.03,meteohub,2013-02-22 18:22:00,
2013-02-22 13:27:00,36.1,21.9,30.34,North,359,0.0,2.0,56,0.00,,,0.03,meteohub,2013-02-22 18:27:00,
2013-02-22 13:32:00,36.1,21.9,30.33,ENE,65,0.0,2.0,56,0.01,,,0.04,meteohub,2013-02-22 18:32:00,
2013-02-22 13:37:00,36.1,22.5,30.33,North,10,0.0,2.0,57,0.01,,,0.04,meteohub,2013-02-22 18:37:00,
2013-02-22 13:42:00,36.1,21.9,30.33,North,353,0.0,2.0,56,0.01,,,0.04,meteohub,2013-02-22 18:42:00,
2013-02-22 13:47:00,36.1,23.2,30.32,East,83,0.0,2.0,59,0.01,,,0.04,meteohub,2013-02-22 18:47:00,
2013-02-22 13:52:00,36.5,23.9,30.32,ESE,110,0.0,2.0,60,0.01,,,0.04,meteohub,2013-02-22 18:52:00,
2013-02-22 13:57:00,36.5,23.5,30.32,ESE,108,0.0,6.0,59,0.01,,,0.04,meteohub,2013-02-22 18:57:00,
2013-02-22 14:02:00,36.5,23.2,30.32,SE,130,5.0,6.0,58,0.01,,,0.04,meteohub,2013-02-22 19:02:00,
2013-02-22 14:07:00,36.3,23.0,30.32,ESE,116,0.0,6.0,58,0.01,,,0.04,meteohub,2013-02-22 19:07:00,
2013-02-22 14:12:00,36.3,22.1,30.32,SE,132,0.0,5.0,56,0.01,,,0.04,meteohub,2013-02-22 19:12:00,
2013-02-22 14:17:00,36.1,21.9,30.33,NW,320,2.0,5.0,56,0.01,,,0.04,meteohub,2013-02-22 19:17:00,
2013-02-22 14:22:00,35.6,21.9,30.32,NNW,341,0.0,3.0,57,0.01,,,0.04,meteohub,2013-02-22 19:22:00,
2013-02-22 14:27:00,35.8,22.5,30.33,NNW,341,0.0,3.0,58,0.01,,,0.04,meteohub,2013-02-22 19:27:00,
2013-02-22 14:32:00,36.0,22.6,30.32,NNW,341,0.0,3.0,58,0.00,,,0.04,meteohub,2013-02-22 19:32:00,
2013-02-22 14:37:00,36.1,24.1,30.32,East,98,0.0,1.0,61,0.00,,,0.04,meteohub,2013-02-22 19:37:00,
2013-02-22 14:42:00,36.5,22.6,30.32,ESE,120,3.0,3.0,57,0.00,,,0.04,meteohub,2013-02-22 19:42:00,
2013-02-22 14:47:00,36.5,22.6,30.33,NW,313,1.0,6.0,57,0.00,,,0.04,meteohub,2013-02-22 19:47:00,
2013-02-22 14:52:00,36.7,22.5,30.33,SSE,153,3.0,6.0,56,0.00,,,0.04,meteohub,2013-02-22 19:52:00,
2013-02-22 14:57:00,36.7,22.5,30.33,SE,135,1.0,8.0,56,0.00,,,0.04,meteohub,2013-02-22 19:57:00,
2013-02-22 15:02:00,37.0,22.8,30.33,SE,125,0.0,8.0,56,0.00,,,0.04,meteohub,2013-02-22 20:02:00,
2013-02-22 15:07:00,37.6,23.7,30.32,East,97,0.0,8.0,57,0.00,,,0.04,meteohub,2013-02-22 20:07:00,
2013-02-22 15:12:00,37.6,22.8,30.32,ESE,119,2.0,5.0,55,0.00,,,0.04,meteohub,2013-02-22 20:12:00,
2013-02-22 15:17:00,37.0,22.5,30.32,ESE,120,3.0,5.0,55,0.00,,,0.04,meteohub,2013-02-22 20:17:00,
2013-02-22 15:22:00,36.3,22.5,30.32,ESE,120,2.0,6.0,57,0.00,,,0.04,meteohub,2013-02-22 20:22:00,
2013-02-22 15:27:00,36.0,23.0,30.31,East,93,2.0,6.0,59,0.00,,,0.04,meteohub,2013-02-22 20:27:00,
2013-02-22 15:32:00,35.8,22.8,30.31,ESE,114,5.0,7.0,59,0.00,,,0.04,meteohub,2013-02-22 20:32:00,
2013-02-22 15:37:00,35.8,23.7,30.32,ESE,114,1.0,7.0,61,0.00,,,0.04,meteohub,2013-02-22 20:37:00,
2013-02-22 15:42:00,35.6,23.9,30.31,ESE,103,1.0,6.0,62,0.00,,,0.04,meteohub,2013-02-22 20:42:00,
2013-02-22 15:47:00,35.4,23.7,30.30,SE,125,6.0,6.0,62,0.00,,,0.04,meteohub,2013-02-22 20:47:00,
2013-02-22 15:52:00,35.4,23.4,30.30,SE,138,3.0,7.0,61,0.00,,,0.04,meteohub,2013-02-22 20:52:00,
2013-02-22 15:57:00,35.2,23.2,30.30,ESE,112,3.0,7.0,61,0.00,,,0.04,meteohub,2013-02-22 20:57:00,
2013-02-22 16:02:00,35.2,23.2,30.30,East,91,1.0,7.0,61,0.00,,,0.04,meteohub,2013-02-22 21:02:00,
2013-02-22 16:07:00,35.1,22.6,30.30,ESE,108,1.0,7.0,60,0.00,,,0.04,meteohub,2013-02-22 21:07:00,
2013-02-22 16:12:00,35.1,23.0,30.30,ESE,123,5.0,6.0,61,0.00,,,0.04,meteohub,2013-02-22 21:12:00,
2013-02-22 16:17:00,34.9,22.5,30.30,SE,140,3.0,6.0,60,0.00,,,0.04,meteohub,2013-02-22 21:17:00,
2013-02-22 16:22:00,34.9,23.2,30.30,ESE,120,0.0,5.0,62,0.00,,,0.04,meteohub,2013-02-22 21:22:00,
2013-02-22 16:27:00,34.7,23.0,30.30,SE,138,0.0,5.0,62,0.00,,,0.04,meteohub,2013-02-22 21:27:00,
2013-02-22 16:32:00,34.5,22.8,30.30,SE,129,5.0,5.0,62,0.00,,,0.04,meteohub,2013-02-22 21:32:00,
2013-02-22 16:37:00,34.3,21.9,30.30,ESE,121,1.0,5.0,60,0.00,,,0.04,meteohub,2013-02-22 21:37:00,
2013-02-22 16:42:00,34.2,22.1,30.30,SE,137,2.0,5.0,61,0.00,,,0.04,meteohub,2013-02-22 21:42:00,
2013-02-22 16:47:00,34.0,22.3,30.29,ESE,120,0.0,5.0,62,0.00,,,0.04,meteohub,2013-02-22 21:47:00,
2013-02-22 16:52:00,33.6,21.9,30.30,ESE,116,2.0,3.0,62,0.00,,,0.04,meteohub,2013-02-22 21:52:00,
2013-02-22 16:57:00,33.4,21.4,30.30,SE,141,2.0,3.0,61,0.00,,,0.04,meteohub,2013-02-22 21:57:00,
2013-02-22 17:02:00,33.4,22.6,30.30,SE,139,1.0,3.0,64,0.00,,,0.04,meteohub,2013-02-22 22:02:00,
2013-02-22 17:07:00,33.3,23.2,30.30,SE,139,0.0,3.0,66,0.00,,,0.04,meteohub,2013-02-22 22:07:00,
2013-02-22 17:12:00,33.3,22.8,30.30,SE,139,0.0,3.0,65,0.00,,,0.04,meteohub,2013-02-22 22:12:00,
2013-02-22 17:17:00,33.1,22.6,30.30,SE,139,0.0,1.0,65,0.00,,,0.04,meteohub,2013-02-22 22:17:00,
2013-02-22 17:22:00,32.7,21.9,30.30,SE,139,0.0,1.0,64,0.00,,,0.04,meteohub,2013-02-22 22:22:00,
2013-02-22 17:27:00,32.5,21.4,30.31,SE,139,0.0,0.0,63,0.00,,,0.04,meteohub,2013-02-22 22:27:00,
2013-02-22 17:32:00,32.4,23.0,30.30,SE,139,0.0,0.0,68,0.00,,,0.04,meteohub,2013-02-22 22:32:00,
2013-02-22 17:37:00,32.0,23.0,30.30,SE,139,0.0,0.0,69,0.00,,,0.04,meteohub,2013-02-22 22:37:00,
2013-02-22 17:42:00,31.5,22.1,30.30,SE,139,0.0,0.0,68,0.00,,,0.04,meteohub,2013-02-22 22:42:00,
2013-02-22 17:47:00,30.9,21.9,30.30,SE,139,0.0,0.0,69,0.00,,,0.04,meteohub,2013-02-22 22:47:00,
2013-02-22 17:52:00,30.7,22.1,30.30,SE,139,0.0,0.0,70,0.00,,,0.04,meteohub,2013-02-22 22:52:00,
2013-02-22 17:57:00,30.6,21.6,30.30,SE,139,0.0,0.0,69,0.00,,,0.04,meteohub,2013-02-22 22:57:00,
2013-02-22 18:02:00,30.4,21.4,30.31,SE,139,0.0,0.0,69,0.00,,,0.04,meteohub,2013-02-22 23:02:00,
2013-02-22 18:07:00,30.2,21.9,30.31,SE,139,0.0,0.0,71,0.00,,,0.04,meteohub,2013-02-22 23:07:00,
2013-02-22 18:12:00,30.0,22.1,30.31,SE,139,0.0,0.0,72,0.00,,,0.04,meteohub,2013-02-22 23:12:00,
2013-02-22 18:17:00,29.1,21.6,30.31,SE,139,0.0,0.0,73,0.00,,,0.04,meteohub,2013-02-22 23:17:00,
2013-02-22 18:22:00,28.6,21.7,30.30,SE,139,0.0,0.0,75,0.00,,,0.04,meteohub,2013-02-22 23:22:00,
2013-02-22 18:27:00,28.2,21.4,30.30,SE,139,0.0,0.0,75,0.00,,,0.04,meteohub,2013-02-22 23:27:00,
2013-02-22 18:32:00,27.9,21.2,30.31,SE,140,0.0,1.0,76,0.00,,,0.04,meteohub,2013-02-22 23:32:00,
2013-02-22 18:37:00,27.9,21.9,30.30,SE,140,0.0,1.0,78,0.00,,,0.04,meteohub,2013-02-22 23:37:00,
2013-02-22 18:42:00,27.7,21.4,30.30,SE,140,0.0,1.0,77,0.00,,,0.04,meteohub,2013-02-22 23:42:00,
2013-02-22 18:47:00,27.1,21.2,30.30,SE,140,0.0,0.0,78,0.00,,,0.04,meteohub,2013-02-22 23:47:00,
2013-02-22 18:52:00,26.8,21.2,30.30,SE,140,0.0,0.0,79,0.00,,,0.04,meteohub,2013-02-22 23:52:00,
2013-02-22 18:57:00,26.8,21.2,30.30,SE,140,0.0,0.0,79,0.00,,,0.04,meteohub,2013-02-22 23:57:00,
2013-02-22 19:02:00,27.0,21.4,30.30,SE,140,0.0,0.0,79,0.00,,,0.04,meteohub,2013-02-23 00:02:00,
2013-02-22 19:07:00,27.1,21.6,30.30,SE,140,0.0,0.0,79,0.00,,,0.00,meteohub,2013-02-23 00:07:00,
2013-02-22 19:12:00,27.1,21.6,30.30,SE,139,0.0,1.0,79,0.00,,,0.00,meteohub,2013-02-23 00:12:00,
2013-02-22 19:17:00,27.1,21.6,30.31,SE,139,0.0,1.0,79,0.00,,,0.00,meteohub,2013-02-23 00:17:00,
2013-02-22 19:22:00,27.3,21.9,30.31,SE,139,0.0,1.0,80,0.00,,,0.00,meteohub,2013-02-23 00:22:00,
2013-02-22 19:27:00,27.3,22.3,30.31,SE,139,0.0,1.0,81,0.00,,,0.00,meteohub,2013-02-23 00:27:00,
2013-02-22 19:32:00,27.5,22.5,30.31,SE,139,0.0,1.0,81,0.00,,,0.00,meteohub,2013-02-23 00:32:00,
2013-02-22 19:37:00,27.5,22.1,30.30,SE,139,0.0,1.0,80,0.00,,,0.00,meteohub,2013-02-23 00:37:00,
2013-02-22 19:42:00,27.3,21.7,30.30,SE,139,0.0,0.0,79,0.00,,,0.00,meteohub,2013-02-23 00:42:00,
2013-02-22 19:47:00,27.5,21.9,30.30,SE,139,0.0,0.0,79,0.00,,,0.00,meteohub,2013-02-23 00:47:00,
2013-02-22 19:52:00,27.7,22.3,30.30,SE,139,0.0,0.0,80,0.00,,,0.00,meteohub,2013-02-23 00:52:00,
2013-02-22 19:57:00,27.9,22.5,30.30,SE,139,0.0,0.0,80,0.00,,,0.00,meteohub,2013-02-23 00:57:00,
2013-02-22 20:02:00,27.9,22.5,30.30,SE,139,0.0,1.0,80,0.00,,,0.00,meteohub,2013-02-23 01:02:00,
2013-02-22 20:07:00,27.9,22.5,30.29,SE,139,0.0,1.0,80,0.00,,,0.00,meteohub,2013-02-23 01:07:00,
2013-02-22 20:12:00,27.7,22.3,30.29,SE,139,0.0,1.0,80,0.00,,,0.00,meteohub,2013-02-23 01:12:00,
2013-02-22 20:17:00,27.7,22.6,30.30,SE,139,0.0,0.0,81,0.00,,,0.00,meteohub,2013-02-23 01:17:00,
2013-02-22 20:22:00,27.7,22.3,30.30,SE,139,0.0,0.0,80,0.00,,,0.00,meteohub,2013-02-23 01:22:00,
2013-02-22 20:27:00,27.5,22.1,30.30,SE,139,0.0,0.0,80,0.00,,,0.00,meteohub,2013-02-23 01:27:00,
2013-02-22 20:32:00,27.5,22.5,30.30,SE,139,0.0,0.0,81,0.00,,,0.00,meteohub,2013-02-23 01:32:00,
2013-02-22 20:37:00,27.5,22.1,30.30,SE,139,0.0,0.0,80,0.00,,,0.00,meteohub,2013-02-23 01:37:00,
2013-02-22 20:42:00,27.3,21.9,30.30,SE,139,0.0,0.0,80,0.00,,,0.00,meteohub,2013-02-23 01:42:00,
2013-02-22 20:47:00,27.3,21.9,30.30,SE,139,0.0,1.0,80,0.00,,,0.00,meteohub,2013-02-23 01:47:00,
2013-02-22 20:52:00,27.5,23.0,30.29,SE,139,0.0,1.0,83,0.00,,,0.00,meteohub,2013-02-23 01:52:00,
2013-02-22 20:57:00,27.5,22.8,30.30,SE,139,0.0,0.0,82,0.00,,,0.00,meteohub,2013-02-23 01:57:00,
2013-02-22 21:02:00,27.3,22.3,30.30,SE,139,0.0,0.0,81,0.00,,,0.00,meteohub,2013-02-23 02:02:00,
2013-02-22 21:07:00,27.3,22.8,30.29,SE,139,0.0,0.0,83,0.00,,,0.00,meteohub,2013-02-23 02:07:00,
2013-02-22 21:12:00,27.5,23.0,30.29,SE,139,0.0,1.0,83,0.00,,,0.00,meteohub,2013-02-23 02:12:00,
2013-02-22 21:17:00,27.3,22.6,30.29,SE,139,1.0,1.0,82,0.00,,,0.00,meteohub,2013-02-23 02:17:00,
2013-02-22 21:22:00,27.3,22.6,30.29,SE,140,0.0,1.0,82,0.00,,,0.00,meteohub,2013-02-23 02:22:00,
2013-02-22 21:27:00,27.5,22.8,30.29,SE,139,0.0,1.0,82,0.00,,,0.00,meteohub,2013-02-23 02:27:00,
2013-02-22 21:32:00,27.9,22.5,30.30,SE,139,0.0,1.0,80,0.00,,,0.00,meteohub,2013-02-23 02:32:00,
2013-02-22 21:37:00,28.0,22.5,30.29,SE,139,0.0,1.0,79,0.00,,,0.00,meteohub,2013-02-23 02:37:00,
2013-02-22 21:42:00,28.4,22.5,30.29,SE,139,0.0,1.0,78,0.00,,,0.00,meteohub,2013-02-23 02:42:00,
2013-02-22 21:47:00,28.6,22.3,30.29,SE,139,0.0,1.0,77,0.00,,,0.00,meteohub,2013-02-23 02:47:00,
2013-02-22 21:52:00,28.9,22.3,30.29,SE,128,1.0,1.0,76,0.00,,,0.00,meteohub,2013-02-23 02:52:00,
2013-02-22 21:57:00,29.3,22.3,30.29,SE,128,0.0,1.0,75,0.00,,,0.00,meteohub,2013-02-23 02:57:00,
2013-02-22 22:02:00,29.7,22.6,30.29,SW,232,0.0,2.0,75,0.00,,,0.00,meteohub,2013-02-23 03:02:00,
2013-02-22 22:07:00,29.7,22.5,30.29,NW,304,1.0,2.0,74,0.00,,,0.00,meteohub,2013-02-23 03:07:00,
2013-02-22 22:12:00,29.8,22.6,30.29,NW,304,0.0,3.0,74,0.00,,,0.00,meteohub,2013-02-23 03:12:00,
2013-02-22 22:17:00,29.8,22.6,30.29,NW,304,1.0,3.0,74,0.00,,,0.00,meteohub,2013-02-23 03:17:00,
2013-02-22 22:22:00,29.7,22.5,30.29,NW,304,0.0,2.0,74,0.00,,,0.00,meteohub,2013-02-23 03:22:00,
2013-02-22 22:27:00,29.5,22.3,30.29,NW,304,0.0,2.0,74,0.00,,,0.00,meteohub,2013-02-23 03:27:00,
2013-02-22 22:32:00,29.3,22.1,30.29,NW,304,0.0,2.0,74,0.00,,,0.00,meteohub,2013-02-23 03:32:00,
2013-02-22 22:37:00,29.1,21.9,30.29,SSW,203,0.0,1.0,74,0.00,,,0.00,meteohub,2013-02-23 03:37:00,
2013-02-22 22:42:00,29.1,22.3,30.29,SE,131,0.0,1.0,75,0.00,,,0.00,meteohub,2013-02-23 03:42:00,
2013-02-22 22:47:00,29.5,22.5,30.29,ESE,103,1.0,2.0,75,0.00,,,0.00,meteohub,2013-02-23 03:47:00,
2013-02-22 22:52:00,29.7,22.5,30.29,SE,126,3.0,3.0,74,0.00,,,0.00,meteohub,2013-02-23 03:52:00,
2013-02-22 22:57:00,30.0,22.1,30.28,SE,126,2.0,5.0,72,0.00,,,0.00,meteohub,2013-02-23 03:57:00,
2013-02-22 23:02:00,30.4,22.1,30.28,SE,140,5.0,5.0,71,0.00,,,0.00,meteohub,2013-02-23 04:02:00,
2013-02-22 23:07:00,30.6,22.3,30.28,SE,134,2.0,9.0,71,0.00,,,0.00,meteohub,2013-02-23 04:07:00,
2013-02-22 23:12:00,30.6,22.3,30.28,ESE,119,0.0,9.0,71,0.00,,,0.00,meteohub,2013-02-23 04:12:00,
2013-02-22 23:17:00,30.6,22.3,30.28,SSE,148,3.0,9.0,71,0.00,,,0.00,meteohub,2013-02-23 04:17:00,
2013-02-22 23:22:00,30.7,22.5,30.28,SE,125,2.0,5.0,71,0.00,,,0.00,meteohub,2013-02-23 04:22:00,
2013-02-22 23:27:00,30.7,22.1,30.27,East,99,1.0,5.0,70,0.00,,,0.00,meteohub,2013-02-23 04:27:00,
2013-02-22 23:32:00,30.9,22.6,30.28,SE,124,0.0,6.0,71,0.00,,,0.00,meteohub,2013-02-23 04:32:00,
2013-02-22 23:37:00,30.9,22.3,30.27,ESE,121,2.0,6.0,70,0.00,,,0.00,meteohub,2013-02-23 04:37:00,
2013-02-22 23:42:00,30.9,22.3,30.27,SE,137,4.0,6.0,70,0.00,,,0.00,meteohub,2013-02-23 04:42:00,
2013-02-22 23:47:00,30.9,21.9,30.27,SE,125,2.0,6.0,69,0.00,,,0.00,meteohub,2013-02-23 04:47:00,
2013-02-22 23:52:00,30.9,22.3,30.27,SSE,157,0.0,6.0,70,0.00,,,0.00,meteohub,2013-02-23 04:52:00,
2013-02-22 23:57:00,30.9,22.6,30.27,SE,137,0.0,5.0,71,0.00,,,0.00,meteohub,2013-02-23 04:57:00,